createdAt,value
2022-10-24T00:00:13.531Z,0.00
2022-10-24T00:01:13.446Z,0.00
2022-10-24T00:02:13.432Z,0.00
2022-10-24T00:03:13.499Z,0.00
2022-10-24T00:04:13.408Z,0.00
2022-10-24T00:05:13.418Z,0.00
2022-10-24T00:06:13.397Z,0.00
2022-10-24T00:07:13.379Z,0.00
2022-10-24T00:08:13.367Z,0.00
2022-10-24T00:09:13.359Z,0.00
2022-10-24T00:10:13.347Z,0.00
2022-10-24T00:11:13.349Z,0.00
2022-10-24T00:12:13.432Z,0.00
2022-10-24T00:13:13.314Z,0.00
2022-10-24T00:14:13.305Z,0.00
2022-10-24T00:15:13.299Z,0.00
2022-10-24T00:16:13.281Z,0.00
2022-10-24T00:17:13.288Z,0.00
2022-10-24T00:18:13.260Z,0.00
2022-10-24T00:19:13.252Z,0.00
2022-10-24T00:20:13.238Z,0.00
2022-10-24T00:21:13.234Z,0.00
2022-10-24T00:22:13.224Z,0.00
2022-10-24T00:23:13.235Z,0.00
2022-10-24T00:24:13.198Z,0.00
2022-10-24T00:25:13.196Z,0.00
2022-10-24T00:26:13.176Z,0.00
2022-10-24T00:27:13.170Z,0.00
2022-10-24T00:28:13.153Z,0.00
2022-10-24T00:29:13.172Z,0.00
2022-10-24T00:30:13.136Z,0.00
2022-10-24T00:31:13.145Z,0.00
2022-10-24T00:32:13.109Z,0.00
2022-10-24T00:33:13.128Z,0.00
2022-10-24T00:34:13.093Z,0.00
2022-10-24T00:35:13.085Z,0.00
2022-10-24T00:36:13.069Z,0.00
2022-10-24T00:37:13.086Z,0.00
2022-10-24T00:38:13.048Z,0.00
2022-10-24T00:39:13.061Z,0.00
2022-10-24T00:40:13.058Z,0.00
2022-10-24T00:41:13.023Z,0.00
2022-10-24T00:42:13.000Z,0.00
2022-10-24T00:43:12.994Z,0.00
2022-10-24T00:44:13.029Z,0.00
2022-10-24T00:45:12.984Z,0.00
2022-10-24T00:46:12.994Z,0.00
2022-10-24T00:47:12.970Z,0.00
2022-10-24T00:48:12.942Z,0.00
2022-10-24T00:49:12.938Z,0.00
2022-10-24T00:50:12.921Z,0.00
2022-10-24T00:51:12.922Z,0.00
2022-10-24T00:52:12.937Z,0.00
2022-10-24T00:53:12.907Z,0.00
2022-10-24T00:54:12.878Z,0.00
2022-10-24T00:55:12.870Z,0.00
2022-10-24T00:56:12.883Z,0.00
2022-10-24T00:57:12.858Z,0.00
2022-10-24T00:58:12.834Z,0.00
2022-10-24T00:59:12.834Z,0.00
2022-10-24T01:00:12.848Z,0.00
2022-10-24T01:01:12.988Z,0.00
2022-10-24T01:03:12.792Z,0.00
2022-10-24T01:04:12.763Z,0.00
2022-10-24T01:05:12.788Z,0.00
2022-10-24T01:06:12.743Z,0.00
2022-10-24T01:07:12.739Z,0.00
2022-10-24T01:08:12.719Z,0.00
2022-10-24T01:09:12.716Z,0.00
2022-10-24T05:01:04.876Z,0.00
2022-10-24T05:02:05.773Z,0.00
2022-10-24T05:03:05.726Z,0.00
2022-10-24T05:04:05.726Z,0.00
2022-10-24T05:05:05.697Z,0.00
2022-10-24T05:06:05.706Z,0.00
2022-10-24T05:07:05.673Z,0.00
2022-10-24T05:08:05.679Z,0.00
2022-10-24T05:09:05.699Z,0.00
2022-10-24T05:10:05.656Z,0.00
2022-10-24T05:11:05.637Z,0.00
2022-10-24T05:12:05.637Z,0.00
2022-10-24T05:13:05.630Z,0.00
2022-10-24T05:14:05.629Z,0.00
2022-10-24T05:15:05.611Z,0.00
2022-10-24T05:16:05.586Z,0.00
2022-10-24T05:17:11.677Z,0.00
2022-10-24T05:18:05.557Z,0.00
2022-10-24T05:19:05.559Z,0.00
2022-10-24T05:20:05.539Z,0.00
2022-10-24T05:21:05.528Z,0.00
2022-10-24T05:22:08.535Z,0.00
2022-10-24T05:23:05.507Z,0.00
2022-10-24T05:24:05.517Z,0.00
2022-10-24T05:25:05.500Z,0.00
2022-10-24T05:26:05.474Z,0.00
2022-10-24T05:27:05.459Z,0.00
2022-10-24T05:28:05.446Z,0.00
2022-10-24T05:29:05.435Z,0.00
2022-10-24T05:30:05.441Z,0.00
2022-10-24T05:31:05.416Z,0.00
2022-10-24T05:32:05.425Z,0.00
2022-10-24T05:33:05.447Z,0.00
2022-10-24T05:34:05.384Z,0.00
2022-10-24T05:35:05.368Z,0.00
2022-10-24T05:36:05.395Z,0.00
2022-10-24T05:37:05.361Z,0.00
2022-10-24T05:38:05.339Z,0.00
2022-10-24T05:39:05.329Z,0.00
2022-10-24T05:40:05.319Z,0.00
2022-10-24T05:41:05.248Z,1.00
2022-10-24T05:42:05.268Z,1.00
2022-10-24T05:43:05.231Z,1.00
2022-10-24T05:44:05.225Z,2.00
2022-10-24T05:45:05.211Z,2.00
2022-10-24T05:46:05.211Z,2.00
2022-10-24T05:47:05.182Z,3.00
2022-10-24T05:48:05.194Z,3.00
2022-10-24T05:49:05.178Z,4.00
2022-10-24T05:50:05.161Z,5.00
2022-10-24T05:51:05.143Z,7.00
2022-10-24T05:52:05.133Z,9.00
2022-10-24T05:53:05.115Z,10.00
2022-10-24T05:54:05.170Z,11.00
2022-10-24T05:55:07.644Z,14.00
2022-10-24T05:56:05.089Z,14.00
2022-10-24T05:57:05.104Z,12.00
2022-10-24T05:58:05.063Z,18.00
2022-10-24T05:59:05.109Z,21.00
2022-10-24T06:00:05.048Z,24.00
2022-10-24T06:01:05.080Z,26.00
2022-10-24T06:02:05.084Z,27.00
2022-10-24T06:03:05.021Z,29.00
2022-10-24T06:04:07.771Z,33.00
2022-10-24T06:05:05.032Z,35.00
2022-10-24T06:06:04.989Z,40.00
2022-10-24T06:07:04.969Z,41.00
2022-10-24T06:08:04.963Z,48.00
2022-10-24T06:09:04.959Z,54.00
2022-10-24T06:10:04.934Z,58.00
2022-10-24T06:11:04.945Z,63.00
2022-10-24T06:12:04.920Z,68.00
2022-10-24T06:13:04.902Z,73.00
2022-10-24T06:14:04.894Z,81.00
2022-10-24T06:15:04.898Z,91.00
2022-10-24T06:16:04.879Z,93.00
2022-10-24T06:17:04.878Z,98.00
2022-10-24T06:18:04.867Z,107.00
2022-10-24T06:19:04.832Z,112.00
2022-10-24T06:20:04.836Z,116.00
2022-10-24T06:21:04.889Z,125.00
2022-10-24T06:22:04.816Z,130.00
2022-10-24T06:23:04.791Z,129.00
2022-10-24T06:24:04.787Z,128.00
2022-10-24T06:25:04.781Z,136.00
2022-10-24T06:26:04.776Z,142.00
2022-10-24T06:27:04.769Z,146.00
2022-10-24T06:28:04.838Z,154.00
2022-10-24T06:29:04.729Z,158.00
2022-10-24T06:30:04.732Z,158.00
2022-10-24T06:31:04.709Z,165.00
2022-10-24T06:32:05.410Z,191.00
2022-10-24T06:33:04.730Z,211.00
2022-10-24T06:34:04.675Z,225.00
2022-10-24T06:35:04.707Z,237.00
2022-10-24T06:36:04.663Z,231.00
2022-10-24T06:37:04.685Z,240.00
2022-10-24T06:38:04.709Z,245.00
2022-10-24T06:39:04.649Z,252.00
2022-10-24T06:40:04.678Z,260.00
2022-10-24T06:41:04.673Z,258.00
2022-10-24T06:42:04.601Z,268.00
2022-10-24T06:43:04.639Z,272.00
2022-10-24T06:44:07.704Z,282.00
2022-10-24T06:45:04.557Z,296.00
2022-10-24T06:46:04.542Z,297.00
2022-10-24T06:47:04.558Z,304.00
2022-10-24T06:48:04.551Z,319.00
2022-10-24T06:49:04.513Z,317.00
2022-10-24T06:50:04.517Z,312.00
2022-10-24T06:51:04.509Z,341.00
2022-10-24T06:52:04.522Z,377.00
2022-10-24T06:53:04.479Z,384.00
2022-10-24T06:54:04.480Z,383.00
2022-10-24T06:55:04.486Z,397.00
2022-10-24T06:56:04.449Z,420.00
2022-10-24T06:57:04.420Z,426.00
2022-10-24T06:58:04.427Z,434.00
2022-10-24T06:59:04.415Z,441.00
2022-10-24T07:00:04.403Z,456.00
2022-10-24T07:01:04.497Z,478.00
2022-10-24T07:02:06.013Z,497.00
2022-10-24T07:03:04.362Z,495.00
2022-10-24T07:04:04.347Z,489.00
2022-10-24T07:05:04.348Z,502.00
2022-10-24T07:06:04.357Z,511.00
2022-10-24T07:07:04.314Z,516.00
2022-10-24T07:08:04.345Z,520.00
2022-10-24T07:09:04.301Z,531.00
2022-10-24T07:10:04.288Z,538.00
2022-10-24T07:11:04.266Z,540.00
2022-10-24T07:12:04.305Z,549.00
2022-10-24T07:13:04.253Z,550.00
2022-10-24T07:14:06.899Z,548.00
2022-10-24T07:15:04.227Z,561.00
2022-10-24T07:16:04.218Z,573.00
2022-10-24T07:17:04.204Z,561.00
2022-10-24T07:18:04.223Z,555.00
2022-10-24T07:19:04.197Z,561.00
2022-10-24T07:20:04.170Z,572.00
2022-10-24T07:21:04.161Z,568.00
2022-10-24T07:22:04.178Z,570.00
2022-10-24T07:23:04.168Z,572.00
2022-10-24T07:24:04.182Z,585.00
2022-10-24T07:25:04.115Z,595.00
2022-10-24T07:26:04.119Z,585.00
2022-10-24T07:27:04.099Z,564.00
2022-10-24T07:28:04.095Z,526.00
2022-10-24T07:29:04.494Z,579.00
2022-10-24T07:30:05.701Z,596.00
2022-10-24T07:31:04.055Z,629.00
2022-10-24T07:32:04.061Z,643.00
2022-10-24T07:33:04.046Z,648.00
2022-10-24T07:34:04.028Z,694.00
2022-10-24T07:35:04.012Z,727.00
2022-10-24T07:36:04.042Z,754.00
2022-10-24T07:37:03.996Z,781.00
2022-10-24T07:38:03.982Z,791.00
2022-10-24T07:39:03.973Z,796.00
2022-10-24T07:40:03.968Z,806.00
2022-10-24T07:41:03.943Z,802.00
2022-10-24T07:42:03.970Z,785.00
2022-10-24T07:43:03.927Z,797.00
2022-10-24T07:44:03.929Z,826.00
2022-10-24T07:45:03.902Z,831.00
2022-10-24T07:46:03.888Z,829.00
2022-10-24T07:47:03.957Z,847.00
2022-10-24T07:48:03.869Z,857.00
2022-10-24T07:49:03.863Z,848.00
2022-10-24T07:50:03.842Z,883.00
2022-10-24T07:51:03.842Z,927.00
2022-10-24T07:52:03.828Z,899.00
2022-10-24T07:53:03.833Z,890.00
2022-10-24T07:54:03.838Z,884.00
2022-10-24T07:55:03.803Z,899.00
2022-10-24T07:56:03.787Z,896.00
2022-10-24T07:57:03.771Z,905.00
2022-10-24T07:58:03.795Z,935.00
2022-10-24T07:59:08.999Z,963.00
2022-10-24T08:00:03.748Z,972.00
2022-10-24T08:01:03.790Z,973.00
2022-10-24T08:02:03.715Z,960.00
2022-10-24T08:03:03.707Z,913.00
2022-10-24T08:04:03.697Z,899.00
2022-10-24T08:05:03.707Z,883.00
2022-10-24T08:06:03.683Z,895.00
2022-10-24T08:07:03.661Z,922.00
2022-10-24T08:08:21.721Z,945.00
2022-10-24T08:09:03.645Z,971.00
2022-10-24T08:10:03.652Z,976.00
2022-10-24T08:11:03.627Z,975.00
2022-10-24T08:12:03.609Z,963.00
2022-10-24T08:13:03.591Z,1016.00
2022-10-24T08:14:03.593Z,1030.00
2022-10-24T08:15:03.572Z,1022.00
2022-10-24T08:16:03.592Z,1040.00
2022-10-24T08:17:03.549Z,1040.00
2022-10-24T08:18:03.546Z,1022.00
2022-10-24T08:19:03.530Z,1009.00
2022-10-24T08:20:03.528Z,1003.00
2022-10-24T08:21:03.521Z,1020.00
2022-10-24T08:22:03.509Z,1006.00
2022-10-24T08:23:03.488Z,1007.00
2022-10-24T08:24:03.500Z,949.00
2022-10-24T08:25:03.477Z,961.00
2022-10-24T08:26:03.467Z,1022.00
2022-10-24T08:27:03.462Z,1076.00
2022-10-24T08:28:06.580Z,1115.00
2022-10-24T08:29:03.424Z,1148.00
2022-10-24T08:30:03.437Z,1178.00
2022-10-24T08:31:03.396Z,1171.00
2022-10-24T08:32:03.390Z,1180.00
2022-10-24T08:33:03.400Z,1197.00
2022-10-24T08:34:03.379Z,1224.00
2022-10-24T08:35:03.354Z,1230.00
2022-10-24T08:36:03.357Z,1256.00
2022-10-24T08:37:03.339Z,1284.00
2022-10-24T08:38:03.322Z,1300.00
2022-10-24T08:39:03.342Z,1306.00
2022-10-24T08:40:03.300Z,1326.00
2022-10-24T08:41:03.291Z,1300.00
2022-10-24T08:42:03.287Z,1298.00
2022-10-24T08:43:03.278Z,1302.00
2022-10-24T08:44:03.257Z,1298.00
2022-10-24T08:45:03.278Z,1302.00
2022-10-24T08:46:03.239Z,1316.00
2022-10-24T08:47:03.226Z,1354.00
2022-10-24T08:48:03.222Z,1442.00
2022-10-24T08:49:03.209Z,1416.00
2022-10-24T08:50:03.214Z,1491.00
2022-10-24T08:51:03.180Z,1480.00
2022-10-24T08:52:03.171Z,1544.00
2022-10-24T08:53:03.166Z,1580.00
2022-10-24T08:54:03.166Z,1579.00
2022-10-24T08:55:04.793Z,1559.00
2022-10-24T08:56:03.168Z,1567.00
2022-10-24T08:57:03.115Z,1602.00
2022-10-24T08:58:03.107Z,1579.00
2022-10-24T08:59:03.093Z,1639.00
2022-10-24T09:00:03.103Z,1624.00
2022-10-24T09:01:03.195Z,1640.00
2022-10-24T09:02:04.561Z,1612.00
2022-10-24T09:03:03.710Z,1595.00
2022-10-24T09:04:03.042Z,1603.00
2022-10-24T09:05:03.039Z,1582.00
2022-10-24T09:06:03.032Z,1573.00
2022-10-24T09:07:03.008Z,1582.00
2022-10-24T09:08:03.043Z,1608.00
2022-10-24T09:09:02.992Z,1590.00
2022-10-24T09:10:03.026Z,1602.00
2022-10-24T09:11:02.980Z,1605.00
2022-10-24T09:12:02.979Z,1548.00
2022-10-24T09:13:02.946Z,1541.00
2022-10-24T09:14:02.984Z,1481.00
2022-10-24T09:15:02.926Z,1359.00
2022-10-24T09:16:02.916Z,1183.00
2022-10-24T09:17:02.899Z,1017.00
2022-10-24T09:18:02.885Z,921.00
2022-10-24T09:19:02.882Z,879.00
2022-10-24T09:20:02.944Z,835.00
2022-10-24T09:21:02.880Z,819.00
2022-10-24T09:22:02.845Z,965.00
2022-10-24T09:23:02.832Z,859.00
2022-10-24T09:24:02.830Z,915.00
2022-10-24T09:25:02.904Z,1008.00
2022-10-24T09:26:02.846Z,1232.00
2022-10-24T09:27:02.795Z,1141.00
2022-10-24T09:28:02.783Z,1483.00
2022-10-24T09:29:02.780Z,1395.00
2022-10-24T09:30:02.754Z,1716.00
2022-10-24T09:31:02.770Z,1932.00
2022-10-24T09:32:02.733Z,2030.00
2022-10-24T09:33:02.749Z,1841.00
2022-10-24T09:34:02.713Z,1627.00
2022-10-24T09:35:02.707Z,1619.00
2022-10-24T09:36:02.686Z,1874.00
2022-10-24T09:37:02.760Z,1654.00
2022-10-24T09:38:02.672Z,1445.00
2022-10-24T09:39:02.667Z,1431.00
2022-10-24T09:40:02.680Z,1381.00
2022-10-24T09:41:02.669Z,1326.00
2022-10-24T09:42:02.626Z,1364.00
2022-10-24T09:43:02.618Z,1513.00
2022-10-24T09:44:02.603Z,1431.00
2022-10-24T09:45:02.598Z,1374.00
2022-10-24T09:46:02.611Z,1420.00
2022-10-24T09:47:02.573Z,1586.00
2022-10-24T09:48:02.570Z,1610.00
2022-10-24T09:49:02.555Z,1464.00
2022-10-24T09:50:02.540Z,1657.00
2022-10-24T09:51:02.534Z,1893.00
2022-10-24T09:52:02.548Z,1737.00
2022-10-24T09:53:02.510Z,1992.00
2022-10-24T09:54:02.502Z,1893.00
2022-10-24T09:55:02.516Z,2243.00
2022-10-24T09:56:02.487Z,2363.00
2022-10-24T09:57:02.548Z,2219.00
2022-10-24T09:58:02.449Z,1966.00
2022-10-24T09:59:02.452Z,2631.00
2022-10-24T10:00:02.432Z,2295.00
2022-10-24T10:01:02.581Z,1757.00
2022-10-24T10:02:02.569Z,1955.00
2022-10-24T10:03:02.411Z,1991.00
2022-10-24T10:04:07.599Z,1833.00
2022-10-24T10:05:02.396Z,1797.00
2022-10-24T10:06:02.369Z,1860.00
2022-10-24T10:07:02.463Z,1854.00
2022-10-24T10:08:02.367Z,1703.00
2022-10-24T10:09:02.337Z,1743.00
2022-10-24T10:10:02.349Z,1882.00
2022-10-24T10:11:02.311Z,1730.00
2022-10-24T10:12:03.012Z,1700.00
2022-10-24T10:13:02.329Z,1729.00
2022-10-24T10:14:02.276Z,1661.00
2022-10-24T10:15:02.352Z,1870.00
2022-10-24T10:16:02.330Z,1938.00
2022-10-24T10:17:02.268Z,1867.00
2022-10-24T10:18:02.248Z,1904.00
2022-10-24T10:19:02.228Z,2023.00
2022-10-24T10:20:02.206Z,2245.00
2022-10-24T10:21:02.228Z,2440.00
2022-10-24T10:22:02.186Z,2876.00
2022-10-24T10:23:02.181Z,2570.00
2022-10-24T10:24:02.196Z,2515.00
2022-10-24T10:25:02.190Z,2892.00
2022-10-24T10:26:02.159Z,2570.00
2022-10-24T10:27:02.239Z,2510.00
2022-10-24T10:28:03.156Z,2789.00
2022-10-24T10:29:02.116Z,2296.00
2022-10-24T10:30:02.103Z,2299.00
2022-10-24T10:31:02.096Z,1819.00
2022-10-24T10:32:02.075Z,1803.00
2022-10-24T10:33:02.097Z,2481.00
2022-10-24T10:34:02.055Z,2479.00
2022-10-24T10:35:02.045Z,2370.00
2022-10-24T10:36:02.033Z,2105.00
2022-10-24T10:37:02.032Z,1728.00
2022-10-24T10:38:02.047Z,1661.00
2022-10-24T10:39:02.011Z,1406.00
2022-10-24T10:40:01.994Z,1562.00
2022-10-24T10:41:01.998Z,1378.00
2022-10-24T10:42:01.976Z,1114.00
2022-10-24T10:43:01.989Z,966.00
2022-10-24T10:44:01.966Z,1019.00
2022-10-24T10:45:01.959Z,1104.00
2022-10-24T10:46:01.929Z,1139.00
2022-10-24T10:47:01.920Z,1136.00
2022-10-24T10:48:01.908Z,1070.00
2022-10-24T10:49:01.927Z,1133.00
2022-10-24T10:50:01.910Z,1176.00
2022-10-24T10:51:04.425Z,1198.00
2022-10-24T10:52:01.868Z,1463.00
2022-10-24T10:53:01.856Z,1856.00
2022-10-24T10:54:01.863Z,2201.00
2022-10-24T10:55:01.927Z,2210.00
2022-10-24T10:56:01.834Z,2266.00
2022-10-24T10:57:01.833Z,2190.00
2022-10-24T10:58:01.817Z,2244.00
2022-10-24T10:59:01.800Z,1961.00
2022-10-24T11:00:01.798Z,1945.00
2022-10-24T11:01:01.914Z,1886.00
2022-10-24T11:02:02.085Z,2065.00
2022-10-24T11:03:01.752Z,1753.00
2022-10-24T11:04:01.736Z,1452.00
2022-10-24T11:05:01.725Z,1301.00
2022-10-24T11:06:01.705Z,1246.00
2022-10-24T11:07:01.847Z,1407.00
2022-10-24T11:08:01.702Z,1284.00
2022-10-24T11:09:01.709Z,1239.00
2022-10-24T11:10:01.717Z,972.00
2022-10-24T11:11:01.685Z,1330.00
2022-10-24T11:12:01.687Z,1717.00
2022-10-24T11:13:01.638Z,1872.00
2022-10-24T11:14:01.639Z,1837.00
2022-10-24T11:15:01.622Z,1593.00
2022-10-24T11:16:01.619Z,1369.00
2022-10-24T11:17:01.596Z,1404.00
2022-10-24T11:18:07.588Z,1422.00
2022-10-24T11:19:01.577Z,1804.00
2022-10-24T11:20:01.671Z,1624.00
2022-10-24T11:21:01.554Z,1455.00
2022-10-24T11:22:01.577Z,1404.00
2022-10-24T11:23:01.538Z,1358.00
2022-10-24T11:24:01.512Z,1264.00
2022-10-24T11:25:01.532Z,1152.00
2022-10-24T11:26:01.501Z,1056.00
2022-10-24T11:27:01.481Z,1217.00
2022-10-24T11:28:01.486Z,1491.00
2022-10-24T11:29:01.459Z,1691.00
2022-10-24T11:30:01.457Z,1868.00
2022-10-24T11:31:01.455Z,1897.00
2022-10-24T11:32:01.490Z,1615.00
2022-10-24T11:33:01.474Z,1307.00
2022-10-24T11:34:01.410Z,1519.00
2022-10-24T11:35:01.413Z,1583.00
2022-10-24T11:36:01.388Z,1415.00
2022-10-24T11:37:01.382Z,966.00
2022-10-24T11:38:01.379Z,1653.00
2022-10-24T11:39:01.485Z,1956.00
2022-10-24T11:40:01.352Z,1641.00
2022-10-24T11:41:01.350Z,1047.00
2022-10-24T11:42:01.340Z,1961.00
2022-10-24T11:43:01.308Z,2345.00
2022-10-24T11:44:01.320Z,2150.00
2022-10-24T11:45:01.581Z,2269.00
2022-10-24T11:46:01.290Z,1889.00
2022-10-24T11:47:06.267Z,1665.00
2022-10-24T11:48:01.271Z,1568.00
2022-10-24T11:49:01.278Z,1410.00
2022-10-24T11:50:01.299Z,1389.00
2022-10-24T11:51:01.259Z,1701.00
2022-10-24T11:52:01.210Z,1529.00
2022-10-24T11:53:01.222Z,1371.00
2022-10-24T11:54:01.222Z,1192.00
2022-10-24T11:55:01.224Z,1099.00
2022-10-24T11:56:01.172Z,952.00
2022-10-24T11:57:01.293Z,975.00
2022-10-24T11:58:01.158Z,1347.00
2022-10-24T11:59:01.138Z,1158.00
2022-10-24T12:00:01.136Z,805.00
2022-10-24T12:01:01.187Z,806.00
2022-10-24T12:02:01.112Z,2009.00
2022-10-24T12:03:01.179Z,1593.00
2022-10-24T12:04:01.089Z,913.00
2022-10-24T12:05:01.167Z,1139.00
2022-10-24T12:06:01.056Z,1607.00
2022-10-24T12:07:01.043Z,3182.00
2022-10-24T12:08:01.055Z,2324.00
2022-10-24T12:09:01.040Z,1692.00
2022-10-24T12:10:01.021Z,1545.00
2022-10-24T12:11:01.009Z,1687.00
2022-10-24T12:12:01.020Z,1648.00
2022-10-24T12:13:00.991Z,2585.00
2022-10-24T12:15:00.967Z,1605.00
2022-10-24T12:16:00.948Z,2960.00
2022-10-24T12:17:00.938Z,2636.00
2022-10-24T12:18:00.937Z,2554.00
2022-10-24T12:19:00.925Z,2366.00
2022-10-24T12:20:00.924Z,1648.00
2022-10-24T12:21:00.899Z,2590.00
2022-10-24T12:22:00.900Z,2056.00
2022-10-24T12:23:00.897Z,1974.00
2022-10-24T12:24:00.869Z,1249.00
2022-10-24T12:25:00.887Z,1584.00
2022-10-24T12:26:00.838Z,1417.00
2022-10-24T12:27:00.842Z,1914.00
2022-10-24T12:28:00.821Z,3282.00
2022-10-24T12:29:00.853Z,2519.00
2022-10-24T12:30:00.811Z,1348.00
2022-10-24T12:31:00.812Z,1785.00
2022-10-24T12:32:00.769Z,2901.00
2022-10-24T12:33:00.772Z,2021.00
2022-10-24T12:34:00.754Z,2454.00
2022-10-24T12:35:30.817Z,1656.00
2022-10-24T12:36:00.856Z,1726.00
2022-10-24T12:37:00.745Z,1304.00
2022-10-24T12:38:00.711Z,1367.00
2022-10-24T12:39:00.711Z,2439.00
2022-10-24T12:40:00.687Z,2089.00
2022-10-24T12:41:00.723Z,1907.00
2022-10-24T12:42:00.676Z,1620.00
2022-10-24T12:43:00.654Z,2117.00
2022-10-24T12:44:00.664Z,2460.00
2022-10-24T12:45:00.648Z,1775.00
2022-10-24T12:46:00.629Z,1728.00
2022-10-24T12:47:00.634Z,1660.00
2022-10-24T12:48:00.602Z,2732.00
2022-10-24T12:49:00.600Z,1751.00
2022-10-24T12:50:00.576Z,2658.00
2022-10-24T12:51:00.578Z,2410.00
2022-10-24T12:52:00.594Z,1751.00
2022-10-24T12:53:00.571Z,1603.00
2022-10-24T12:54:00.557Z,1436.00
2022-10-24T12:55:00.529Z,1774.00
2022-10-24T12:56:00.521Z,1986.00
2022-10-24T12:57:00.541Z,918.00
2022-10-24T12:58:00.512Z,1414.00
2022-10-24T12:59:00.545Z,2886.00
2022-10-24T13:00:00.502Z,2472.00
2022-10-24T13:01:00.525Z,2471.00
2022-10-24T13:02:03.600Z,2507.00
2022-10-24T13:03:00.521Z,1547.00
2022-10-24T13:04:00.442Z,1639.00
2022-10-24T13:05:00.433Z,1114.00
2022-10-24T13:06:00.406Z,1789.00
2022-10-24T13:07:00.412Z,2085.00
2022-10-24T13:08:00.430Z,1637.00
2022-10-24T13:09:00.433Z,2629.00
2022-10-24T13:10:00.399Z,2307.00
2022-10-24T13:11:00.360Z,1910.00
2022-10-24T13:12:00.343Z,1749.00
2022-10-24T13:13:00.368Z,1326.00
2022-10-24T13:14:00.314Z,1415.00
2022-10-24T13:15:00.349Z,1656.00
2022-10-24T13:16:00.290Z,1636.00
2022-10-24T13:17:00.309Z,1574.00
2022-10-24T13:18:00.303Z,1859.00
2022-10-24T13:19:00.275Z,1433.00
2022-10-24T13:20:00.254Z,1368.00
2022-10-24T13:21:00.248Z,1624.00
2022-10-24T13:22:00.233Z,1699.00
2022-10-24T13:23:00.242Z,1667.00
2022-10-24T13:24:00.210Z,1635.00
2022-10-24T13:25:00.238Z,1620.00
2022-10-24T13:26:00.194Z,1815.00
2022-10-24T13:27:00.191Z,1481.00
2022-10-24T13:28:00.177Z,1707.00
2022-10-24T13:29:00.190Z,1736.00
2022-10-24T13:30:00.406Z,1819.00
2022-10-24T13:31:00.158Z,1746.00
2022-10-24T13:32:00.117Z,1682.00
2022-10-24T13:33:00.115Z,1702.00
2022-10-24T13:34:00.100Z,1680.00
2022-10-24T13:35:00.122Z,1634.00
2022-10-24T13:36:00.102Z,1550.00
2022-10-24T13:37:00.096Z,1545.00
2022-10-24T13:38:02.039Z,1429.00
2022-10-24T13:39:00.063Z,1575.00
2022-10-24T13:40:00.030Z,1260.00
2022-10-24T13:41:00.058Z,1585.00
2022-10-24T13:42:00.048Z,1560.00
2022-10-24T13:43:00.037Z,1751.00
2022-10-24T13:44:00.020Z,1615.00
2022-10-24T13:44:59.995Z,1589.00
2022-10-24T13:45:59.971Z,1535.00
2022-10-24T13:46:59.967Z,1424.00
2022-10-24T13:47:59.964Z,1411.00
2022-10-24T13:48:59.951Z,1350.00
2022-10-24T13:49:59.927Z,1169.00
2022-10-24T13:50:59.924Z,1238.00
2022-10-24T13:51:59.917Z,1009.00
2022-10-24T13:52:59.895Z,557.00
2022-10-24T13:53:59.890Z,639.00
2022-10-24T13:54:59.940Z,986.00
2022-10-24T13:55:59.876Z,1521.00
2022-10-24T13:57:02.108Z,1324.00
2022-10-24T13:57:59.850Z,1346.00
2022-10-24T13:58:59.842Z,1483.00
2022-10-24T13:59:59.831Z,1536.00
2022-10-24T14:00:59.890Z,1625.00
2022-10-24T14:01:59.803Z,1648.00
2022-10-24T14:02:59.914Z,1575.00
2022-10-24T14:03:59.779Z,1647.00
2022-10-24T14:04:59.782Z,1549.00
2022-10-24T14:05:59.769Z,1752.00
2022-10-24T14:06:59.760Z,1584.00
2022-10-24T14:07:59.743Z,1455.00
2022-10-24T14:09:06.939Z,1369.00
2022-10-24T14:09:59.755Z,1535.00
2022-10-24T14:10:59.694Z,1459.00
2022-10-24T14:11:59.703Z,1469.00
2022-10-24T14:12:59.694Z,1476.00
2022-10-24T14:14:03.913Z,1191.00
2022-10-24T14:14:59.674Z,1241.00
2022-10-24T14:15:59.660Z,1176.00
2022-10-24T14:16:59.633Z,1109.00
2022-10-24T14:17:59.622Z,1165.00
2022-10-24T14:18:59.648Z,1297.00
2022-10-24T14:19:59.625Z,1208.00
2022-10-24T14:20:59.583Z,1409.00
2022-10-24T14:21:59.587Z,1243.00
2022-10-24T14:22:59.598Z,1127.00
2022-10-24T14:23:59.570Z,1153.00
2022-10-24T14:24:59.583Z,1268.00
2022-10-24T14:25:59.563Z,1211.00
2022-10-24T14:26:59.538Z,1210.00
2022-10-24T14:27:59.548Z,1309.00
2022-10-24T14:29:00.159Z,1157.00
2022-10-24T14:29:59.498Z,1129.00
2022-10-24T14:30:59.486Z,1152.00
2022-10-24T14:31:59.482Z,1050.00
2022-10-24T14:32:59.458Z,1089.00
2022-10-24T14:33:59.478Z,1281.00
2022-10-24T14:34:59.447Z,1204.00
2022-10-24T14:35:59.430Z,1079.00
2022-10-24T14:36:59.429Z,1045.00
2022-10-24T14:37:59.417Z,1011.00
2022-10-24T14:38:59.411Z,978.00
2022-10-24T14:39:59.398Z,990.00
2022-10-24T14:41:09.087Z,1041.00
2022-10-24T14:41:59.388Z,1113.00
2022-10-24T14:42:59.358Z,1201.00
2022-10-24T14:43:59.340Z,1267.00
2022-10-24T14:44:59.372Z,1322.00
2022-10-24T14:45:59.326Z,1339.00
2022-10-24T14:46:59.352Z,1140.00
2022-10-24T14:47:59.345Z,1455.00
2022-10-24T14:48:59.323Z,1445.00
2022-10-24T14:49:59.331Z,1376.00
2022-10-24T14:50:59.332Z,1249.00
2022-10-24T14:51:59.298Z,1123.00
2022-10-24T14:52:59.246Z,1076.00
2022-10-24T14:53:59.251Z,1143.00
2022-10-24T14:54:59.246Z,1245.00
2022-10-24T14:55:59.226Z,1272.00
2022-10-24T14:56:59.206Z,1223.00
2022-10-24T14:57:59.200Z,1185.00
2022-10-24T14:58:59.174Z,1198.00
2022-10-24T14:59:59.260Z,1230.00
2022-10-24T15:00:59.177Z,1162.00
2022-10-24T15:01:59.167Z,1096.00
2022-10-24T15:02:59.145Z,1042.00
2022-10-24T15:03:59.129Z,976.00
2022-10-24T15:04:59.106Z,955.00
2022-10-24T15:05:59.125Z,817.00
2022-10-24T15:06:59.119Z,776.00
2022-10-24T15:08:20.519Z,749.00
2022-10-24T15:09:01.015Z,725.00
2022-10-24T15:09:59.065Z,742.00
2022-10-24T15:10:59.060Z,702.00
2022-10-24T15:11:59.059Z,670.00
2022-10-24T15:12:59.049Z,702.00
2022-10-24T15:14:06.586Z,795.00
2022-10-24T15:14:59.032Z,799.00
2022-10-24T15:15:59.011Z,744.00
2022-10-24T15:17:59.025Z,747.00
2022-10-24T15:18:58.969Z,738.00
2022-10-24T15:19:58.946Z,736.00
2022-10-24T15:20:58.956Z,728.00
2022-10-24T15:21:58.923Z,744.00
2022-10-24T15:22:58.922Z,744.00
2022-10-24T15:23:58.949Z,732.00
2022-10-24T15:24:58.932Z,647.00
2022-10-24T15:25:58.891Z,645.00
2022-10-24T15:26:58.876Z,637.00
2022-10-24T15:27:58.917Z,634.00
2022-10-24T15:28:58.858Z,633.00
2022-10-24T15:29:58.850Z,624.00
2022-10-24T15:30:58.829Z,619.00
2022-10-24T15:31:58.832Z,629.00
2022-10-24T15:32:58.804Z,611.00
2022-10-24T15:33:58.827Z,631.00
2022-10-24T15:34:58.818Z,658.00
2022-10-24T15:35:58.784Z,614.00
2022-10-24T15:36:58.776Z,515.00
2022-10-24T15:37:58.755Z,447.00
2022-10-24T15:38:58.765Z,402.00
2022-10-24T15:39:58.773Z,364.00
2022-10-24T15:40:58.749Z,334.00
2022-10-24T15:41:58.799Z,305.00
2022-10-24T15:42:58.701Z,279.00
2022-10-24T15:43:58.715Z,257.00
2022-10-24T15:44:58.730Z,247.00
2022-10-24T15:45:58.733Z,232.00
2022-10-24T15:46:58.653Z,233.00
2022-10-24T15:47:58.654Z,233.00
2022-10-24T15:48:58.685Z,224.00
2022-10-24T15:49:58.629Z,242.00
2022-10-24T15:50:58.617Z,192.00
2022-10-24T15:51:58.668Z,234.00
2022-10-24T15:52:58.628Z,230.00
2022-10-24T15:53:58.609Z,214.00
2022-10-24T15:54:58.577Z,215.00
2022-10-24T15:55:58.574Z,193.00
2022-10-24T15:57:01.584Z,159.00
2022-10-24T15:57:58.591Z,127.00
2022-10-24T15:58:58.555Z,111.00
2022-10-24T15:59:58.510Z,145.00
2022-10-24T16:00:58.555Z,175.00
2022-10-24T16:01:58.528Z,128.00
2022-10-24T16:02:58.486Z,103.00
2022-10-24T16:03:58.499Z,131.00
2022-10-24T16:04:58.456Z,142.00
2022-10-24T16:05:58.446Z,116.00
2022-10-24T16:06:58.530Z,108.00
2022-10-24T16:07:58.438Z,106.00
2022-10-24T16:08:58.422Z,100.00
2022-10-24T16:09:58.425Z,98.00
2022-10-24T16:12:20.644Z,63.00
2022-10-24T16:13:21.625Z,63.00
2022-10-24T16:14:21.629Z,59.00
2022-10-24T16:15:21.649Z,61.00
2022-10-24T16:16:21.602Z,68.00
2022-10-24T16:17:21.593Z,54.00
2022-10-24T16:18:21.580Z,43.00
2022-10-24T16:19:21.566Z,38.00
2022-10-24T16:20:21.566Z,36.00